sensor_id;sensor_type;location;lat;lon;timestamp;P1;durP1;ratioP1;P2;durP2;ratioP2
31424;SDS011;18054;51.572;7.372;2023-11-18T00:01:59;67.88;;;25.30;;
31424;SDS011;18054;51.572;7.372;2023-11-18T00:04:27;62.15;;;24.67;;
31424;SDS011;18054;51.572;7.372;2023-11-18T00:06:54;71.80;;;26.58;;
31424;SDS011;18054;51.572;7.372;2023-11-18T00:09:23;67.35;;;25.63;;
31424;SDS011;18054;51.572;7.372;2023-11-18T00:11:51;68.47;;;24.02;;
31424;SDS011;18054;51.572;7.372;2023-11-18T00:14:18;64.63;;;24.48;;
31424;SDS011;18054;51.572;7.372;2023-11-18T00:16:48;64.70;;;24.17;;
31424;SDS011;18054;51.572;7.372;2023-11-18T00:19:16;83.95;;;25.55;;
31424;SDS011;18054;51.572;7.372;2023-11-18T00:21:43;79.78;;;25.42;;
31424;SDS011;18054;51.572;7.372;2023-11-18T00:24:11;71.78;;;24.13;;
31424;SDS011;18054;51.572;7.372;2023-11-18T00:26:40;74.13;;;22.27;;
31424;SDS011;18054;51.572;7.372;2023-11-18T00:31:35;69.50;;;24.17;;
31424;SDS011;18054;51.572;7.372;2023-11-18T00:36:32;58.92;;;22.83;;
31424;SDS011;18054;51.572;7.372;2023-11-18T00:38:59;64.68;;;21.75;;
31424;SDS011;18054;51.572;7.372;2023-11-18T00:41:27;61.58;;;23.45;;
31424;SDS011;18054;51.572;7.372;2023-11-18T00:43:54;72.43;;;24.58;;
31424;SDS011;18054;51.572;7.372;2023-11-18T00:46:22;55.40;;;22.33;;
31424;SDS011;18054;51.572;7.372;2023-11-18T00:48:50;59.85;;;20.80;;
31424;SDS011;18054;51.572;7.372;2023-11-18T00:51:18;58.28;;;20.38;;
31424;SDS011;18054;51.572;7.372;2023-11-18T00:53:47;67.65;;;22.17;;
31424;SDS011;18054;51.572;7.372;2023-11-18T00:56:15;55.47;;;22.00;;
31424;SDS011;18054;51.572;7.372;2023-11-18T00:58:44;57.08;;;22.05;;
31424;SDS011;18054;51.572;7.372;2023-11-18T01:02:34;51.15;;;21.02;;
31424;SDS011;18054;51.572;7.372;2023-11-18T01:05:02;59.78;;;20.15;;
31424;SDS011;18054;51.572;7.372;2023-11-18T01:07:30;58.83;;;21.10;;
31424;SDS011;18054;51.572;7.372;2023-11-18T01:09:57;60.00;;;20.80;;
31424;SDS011;18054;51.572;7.372;2023-11-18T01:12:26;63.00;;;20.95;;
31424;SDS011;18054;51.572;7.372;2023-11-18T01:14:54;63.75;;;20.42;;
31424;SDS011;18054;51.572;7.372;2023-11-18T01:17:21;47.78;;;20.80;;
31424;SDS011;18054;51.572;7.372;2023-11-18T01:19:51;55.80;;;20.42;;
31424;SDS011;18054;51.572;7.372;2023-11-18T01:22:19;60.67;;;19.98;;
31424;SDS011;18054;51.572;7.372;2023-11-18T01:24:47;56.65;;;19.80;;
31424;SDS011;18054;51.572;7.372;2023-11-18T01:27:14;52.75;;;20.08;;
31424;SDS011;18054;51.572;7.372;2023-11-18T01:29:42;53.70;;;20.65;;
31424;SDS011;18054;51.572;7.372;2023-11-18T01:32:11;52.00;;;20.67;;
31424;SDS011;18054;51.572;7.372;2023-11-18T01:34:38;60.08;;;20.85;;
31424;SDS011;18054;51.572;7.372;2023-11-18T01:42:03;53.67;;;18.88;;
31424;SDS011;18054;51.572;7.372;2023-11-18T01:44:31;58.58;;;19.67;;
31424;SDS011;18054;51.572;7.372;2023-11-18T01:47:00;41.53;;;17.13;;
31424;SDS011;18054;51.572;7.372;2023-11-18T01:49:29;50.70;;;19.48;;
31424;SDS011;18054;51.572;7.372;2023-11-18T01:51:58;51.83;;;18.20;;
31424;SDS011;18054;51.572;7.372;2023-11-18T01:54:27;50.17;;;18.27;;
31424;SDS011;18054;51.572;7.372;2023-11-18T01:56:55;55.10;;;20.30;;
31424;SDS011;18054;51.572;7.372;2023-11-18T01:59:23;44.47;;;19.38;;
31424;SDS011;18054;51.572;7.372;2023-11-18T02:01:52;54.33;;;20.63;;
31424;SDS011;18054;51.572;7.372;2023-11-18T02:04:24;47.85;;;19.55;;
31424;SDS011;18054;51.572;7.372;2023-11-18T02:06:52;52.47;;;18.33;;
31424;SDS011;18054;51.572;7.372;2023-11-18T02:09:20;46.60;;;18.75;;
31424;SDS011;18054;51.572;7.372;2023-11-18T02:11:55;50.08;;;19.40;;
31424;SDS011;18054;51.572;7.372;2023-11-18T02:14:26;62.72;;;18.42;;
31424;SDS011;18054;51.572;7.372;2023-11-18T02:16:55;50.40;;;19.38;;
31424;SDS011;18054;51.572;7.372;2023-11-18T02:19:25;41.03;;;18.92;;
31424;SDS011;18054;51.572;7.372;2023-11-18T02:21:53;54.78;;;18.00;;
31424;SDS011;18054;51.572;7.372;2023-11-18T02:24:26;51.30;;;20.00;;
31424;SDS011;18054;51.572;7.372;2023-11-18T02:26:58;43.42;;;18.02;;
31424;SDS011;18054;51.572;7.372;2023-11-18T02:29:26;51.90;;;19.35;;
31424;SDS011;18054;51.572;7.372;2023-11-18T02:31:57;48.25;;;18.52;;
31424;SDS011;18054;51.572;7.372;2023-11-18T02:34:28;38.88;;;17.60;;
31424;SDS011;18054;51.572;7.372;2023-11-18T02:36:58;50.28;;;18.98;;
31424;SDS011;18054;51.572;7.372;2023-11-18T02:39:29;50.50;;;19.88;;
31424;SDS011;18054;51.572;7.372;2023-11-18T02:42:01;49.65;;;20.17;;
31424;SDS011;18054;51.572;7.372;2023-11-18T02:44:29;55.08;;;19.13;;
31424;SDS011;18054;51.572;7.372;2023-11-18T02:46:59;52.35;;;18.83;;
31424;SDS011;18054;51.572;7.372;2023-11-18T02:49:27;45.83;;;19.98;;
31424;SDS011;18054;51.572;7.372;2023-11-18T02:51:54;60.53;;;21.17;;
31424;SDS011;18054;51.572;7.372;2023-11-18T02:54:22;56.05;;;21.38;;
31424;SDS011;18054;51.572;7.372;2023-11-18T02:56:51;50.95;;;18.55;;
31424;SDS011;18054;51.572;7.372;2023-11-18T02:59:19;49.35;;;19.70;;
31424;SDS011;18054;51.572;7.372;2023-11-18T03:01:47;53.13;;;20.10;;
31424;SDS011;18054;51.572;7.372;2023-11-18T03:04:15;58.03;;;21.52;;
31424;SDS011;18054;51.572;7.372;2023-11-18T03:06:45;56.20;;;20.88;;
31424;SDS011;18054;51.572;7.372;2023-11-18T03:09:12;54.55;;;19.30;;
31424;SDS011;18054;51.572;7.372;2023-11-18T03:11:41;47.30;;;18.02;;
31424;SDS011;18054;51.572;7.372;2023-11-18T03:14:10;53.63;;;19.58;;
31424;SDS011;18054;51.572;7.372;2023-11-18T03:16:40;49.72;;;19.80;;
31424;SDS011;18054;51.572;7.372;2023-11-18T03:19:07;49.05;;;19.35;;
31424;SDS011;18054;51.572;7.372;2023-11-18T03:21:35;45.72;;;18.17;;
31424;SDS011;18054;51.572;7.372;2023-11-18T03:24:05;52.05;;;19.52;;
31424;SDS011;18054;51.572;7.372;2023-11-18T03:26:33;42.13;;;18.27;;
31424;SDS011;18054;51.572;7.372;2023-11-18T03:29:00;48.40;;;19.05;;
31424;SDS011;18054;51.572;7.372;2023-11-18T03:31:29;47.70;;;19.60;;
31424;SDS011;18054;51.572;7.372;2023-11-18T03:33:58;41.60;;;19.25;;
31424;SDS011;18054;51.572;7.372;2023-11-18T03:36:26;47.90;;;17.42;;
31424;SDS011;18054;51.572;7.372;2023-11-18T03:41:21;44.28;;;18.20;;
31424;SDS011;18054;51.572;7.372;2023-11-18T03:43:50;41.90;;;18.08;;
31424;SDS011;18054;51.572;7.372;2023-11-18T03:46:17;47.25;;;17.75;;
31424;SDS011;18054;51.572;7.372;2023-11-18T03:48:45;39.92;;;17.45;;
31424;SDS011;18054;51.572;7.372;2023-11-18T03:51:14;45.20;;;18.35;;
31424;SDS011;18054;51.572;7.372;2023-11-18T03:53:44;43.00;;;17.73;;
31424;SDS011;18054;51.572;7.372;2023-11-18T03:56:16;42.33;;;16.35;;
31424;SDS011;18054;51.572;7.372;2023-11-18T03:58:44;43.83;;;17.27;;
31424;SDS011;18054;51.572;7.372;2023-11-18T04:01:19;41.28;;;17.63;;
31424;SDS011;18054;51.572;7.372;2023-11-18T04:03:46;39.78;;;17.35;;
31424;SDS011;18054;51.572;7.372;2023-11-18T04:06:15;39.42;;;16.90;;
31424;SDS011;18054;51.572;7.372;2023-11-18T04:08:44;42.30;;;16.98;;
31424;SDS011;18054;51.572;7.372;2023-11-18T04:13:39;40.28;;;16.77;;
31424;SDS011;18054;51.572;7.372;2023-11-18T04:16:09;43.33;;;17.63;;
31424;SDS011;18054;51.572;7.372;2023-11-18T04:18:38;36.58;;;16.52;;
31424;SDS011;18054;51.572;7.372;2023-11-18T04:21:06;39.00;;;17.75;;
31424;SDS011;18054;51.572;7.372;2023-11-18T04:23:36;42.13;;;17.48;;
31424;SDS011;18054;51.572;7.372;2023-11-18T04:26:04;41.35;;;17.73;;
31424;SDS011;18054;51.572;7.372;2023-11-18T04:28:31;41.20;;;18.23;;
31424;SDS011;18054;51.572;7.372;2023-11-18T04:30:59;45.70;;;20.02;;
31424;SDS011;18054;51.572;7.372;2023-11-18T04:35:55;42.40;;;18.58;;
31424;SDS011;18054;51.572;7.372;2023-11-18T04:38:24;40.78;;;17.40;;
31424;SDS011;18054;51.572;7.372;2023-11-18T04:40:53;37.28;;;17.23;;
31424;SDS011;18054;51.572;7.372;2023-11-18T04:43:21;44.85;;;18.92;;
31424;SDS011;18054;51.572;7.372;2023-11-18T04:46:06;42.90;;;18.42;;
31424;SDS011;18054;51.572;7.372;2023-11-18T04:48:34;43.08;;;18.30;;
31424;SDS011;18054;51.572;7.372;2023-11-18T04:51:07;37.38;;;16.17;;
31424;SDS011;18054;51.572;7.372;2023-11-18T04:53:34;44.42;;;19.08;;
31424;SDS011;18054;51.572;7.372;2023-11-18T04:56:03;45.72;;;17.98;;
31424;SDS011;18054;51.572;7.372;2023-11-18T04:58:32;39.10;;;17.83;;
31424;SDS011;18054;51.572;7.372;2023-11-18T05:01:01;50.00;;;17.13;;
31424;SDS011;18054;51.572;7.372;2023-11-18T05:03:28;44.95;;;17.50;;
31424;SDS011;18054;51.572;7.372;2023-11-18T05:05:56;47.95;;;18.17;;
31424;SDS011;18054;51.572;7.372;2023-11-18T05:08:24;35.65;;;16.80;;
31424;SDS011;18054;51.572;7.372;2023-11-18T05:13:21;46.30;;;17.15;;
31424;SDS011;18054;51.572;7.372;2023-11-18T05:15:49;44.67;;;18.75;;
31424;SDS011;18054;51.572;7.372;2023-11-18T05:18:20;35.45;;;17.27;;
31424;SDS011;18054;51.572;7.372;2023-11-18T05:20:48;38.45;;;16.33;;
31424;SDS011;18054;51.572;7.372;2023-11-18T05:23:15;37.38;;;17.15;;
31424;SDS011;18054;51.572;7.372;2023-11-18T05:28:10;38.65;;;15.65;;
31424;SDS011;18054;51.572;7.372;2023-11-18T05:30:40;38.72;;;16.17;;
31424;SDS011;18054;51.572;7.372;2023-11-18T05:33:09;48.95;;;16.80;;
31424;SDS011;18054;51.572;7.372;2023-11-18T05:35:41;44.05;;;18.13;;
31424;SDS011;18054;51.572;7.372;2023-11-18T05:38:15;50.50;;;16.80;;
31424;SDS011;18054;51.572;7.372;2023-11-18T05:40:45;40.05;;;16.30;;
31424;SDS011;18054;51.572;7.372;2023-11-18T05:43:22;39.90;;;16.93;;
31424;SDS011;18054;51.572;7.372;2023-11-18T05:45:52;36.17;;;15.27;;
31424;SDS011;18054;51.572;7.372;2023-11-18T05:48:51;33.55;;;16.02;;
31424;SDS011;18054;51.572;7.372;2023-11-18T05:51:19;39.45;;;16.70;;
31424;SDS011;18054;51.572;7.372;2023-11-18T05:53:47;38.03;;;16.77;;
31424;SDS011;18054;51.572;7.372;2023-11-18T05:56:15;35.72;;;16.25;;
31424;SDS011;18054;51.572;7.372;2023-11-18T05:58:43;41.10;;;17.00;;
31424;SDS011;18054;51.572;7.372;2023-11-18T06:01:11;40.67;;;17.05;;
31424;SDS011;18054;51.572;7.372;2023-11-18T06:03:39;39.30;;;15.32;;
31424;SDS011;18054;51.572;7.372;2023-11-18T06:06:09;36.28;;;16.20;;
31424;SDS011;18054;51.572;7.372;2023-11-18T06:08:36;47.17;;;17.73;;
31424;SDS011;18054;51.572;7.372;2023-11-18T06:11:07;33.90;;;15.93;;
31424;SDS011;18054;51.572;7.372;2023-11-18T06:13:40;38.17;;;16.50;;
31424;SDS011;18054;51.572;7.372;2023-11-18T06:16:13;34.13;;;15.48;;
31424;SDS011;18054;51.572;7.372;2023-11-18T06:18:42;42.65;;;15.95;;
31424;SDS011;18054;51.572;7.372;2023-11-18T06:21:14;36.42;;;16.15;;
31424;SDS011;18054;51.572;7.372;2023-11-18T06:23:41;40.22;;;16.95;;
31424;SDS011;18054;51.572;7.372;2023-11-18T06:26:09;34.55;;;15.77;;
31424;SDS011;18054;51.572;7.372;2023-11-18T06:28:38;33.47;;;15.55;;
31424;SDS011;18054;51.572;7.372;2023-11-18T06:31:05;49.10;;;18.95;;
31424;SDS011;18054;51.572;7.372;2023-11-18T06:33:38;41.40;;;16.52;;
31424;SDS011;18054;51.572;7.372;2023-11-18T06:36:16;39.55;;;16.63;;
31424;SDS011;18054;51.572;7.372;2023-11-18T06:38:45;32.47;;;15.80;;
31424;SDS011;18054;51.572;7.372;2023-11-18T06:41:13;33.47;;;15.07;;
31424;SDS011;18054;51.572;7.372;2023-11-18T06:43:43;41.20;;;17.27;;
31424;SDS011;18054;51.572;7.372;2023-11-18T06:46:18;39.08;;;16.90;;
31424;SDS011;18054;51.572;7.372;2023-11-18T06:48:48;35.30;;;16.83;;
31424;SDS011;18054;51.572;7.372;2023-11-18T06:51:16;42.75;;;16.63;;
31424;SDS011;18054;51.572;7.372;2023-11-18T06:53:45;34.42;;;16.38;;
31424;SDS011;18054;51.572;7.372;2023-11-18T06:56:12;34.30;;;16.25;;
31424;SDS011;18054;51.572;7.372;2023-11-18T06:58:42;35.13;;;16.40;;
31424;SDS011;18054;51.572;7.372;2023-11-18T07:01:12;42.30;;;16.38;;
31424;SDS011;18054;51.572;7.372;2023-11-18T07:03:41;30.90;;;14.98;;
31424;SDS011;18054;51.572;7.372;2023-11-18T07:06:08;34.03;;;16.58;;
31424;SDS011;18054;51.572;7.372;2023-11-18T07:08:36;34.47;;;15.57;;
31424;SDS011;18054;51.572;7.372;2023-11-18T07:11:05;37.42;;;15.63;;
31424;SDS011;18054;51.572;7.372;2023-11-18T07:13:32;36.42;;;16.25;;
31424;SDS011;18054;51.572;7.372;2023-11-18T07:16:00;33.92;;;15.48;;
31424;SDS011;18054;51.572;7.372;2023-11-18T07:18:29;32.33;;;14.85;;
31424;SDS011;18054;51.572;7.372;2023-11-18T07:21:00;34.03;;;15.73;;
31424;SDS011;18054;51.572;7.372;2023-11-18T07:23:30;40.72;;;16.15;;
31424;SDS011;18054;51.572;7.372;2023-11-18T07:25:58;34.38;;;15.32;;
31424;SDS011;18054;51.572;7.372;2023-11-18T07:30:54;32.92;;;15.15;;
31424;SDS011;18054;51.572;7.372;2023-11-18T07:33:23;35.10;;;15.55;;
31424;SDS011;18054;51.572;7.372;2023-11-18T07:35:50;31.23;;;14.88;;
31424;SDS011;18054;51.572;7.372;2023-11-18T07:40:46;38.33;;;15.65;;
31424;SDS011;18054;51.572;7.372;2023-11-18T07:43:14;38.88;;;15.98;;
31424;SDS011;18054;51.572;7.372;2023-11-18T07:45:42;36.10;;;16.25;;
31424;SDS011;18054;51.572;7.372;2023-11-18T07:50:39;33.83;;;16.52;;
31424;SDS011;18054;51.572;7.372;2023-11-18T07:53:07;38.75;;;16.83;;
31424;SDS011;18054;51.572;7.372;2023-11-18T07:55:36;38.60;;;15.55;;
31424;SDS011;18054;51.572;7.372;2023-11-18T07:58:05;35.63;;;15.75;;
31424;SDS011;18054;51.572;7.372;2023-11-18T08:00:37;38.22;;;17.45;;
31424;SDS011;18054;51.572;7.372;2023-11-18T08:03:05;34.55;;;16.55;;
31424;SDS011;18054;51.572;7.372;2023-11-18T08:05:35;35.88;;;17.33;;
31424;SDS011;18054;51.572;7.372;2023-11-18T08:08:04;38.45;;;17.88;;
31424;SDS011;18054;51.572;7.372;2023-11-18T08:10:31;34.67;;;16.35;;
31424;SDS011;18054;51.572;7.372;2023-11-18T08:13:00;33.10;;;16.92;;
31424;SDS011;18054;51.572;7.372;2023-11-18T08:17:55;37.78;;;15.32;;
31424;SDS011;18054;51.572;7.372;2023-11-18T08:20:23;30.90;;;16.90;;
31424;SDS011;18054;51.572;7.372;2023-11-18T08:22:51;31.27;;;16.73;;
31424;SDS011;18054;51.572;7.372;2023-11-18T08:25:20;34.72;;;15.43;;
31424;SDS011;18054;51.572;7.372;2023-11-18T08:27:48;35.75;;;16.80;;
31424;SDS011;18054;51.572;7.372;2023-11-18T08:30:16;33.17;;;16.02;;
31424;SDS011;18054;51.572;7.372;2023-11-18T08:32:45;28.02;;;15.75;;
31424;SDS011;18054;51.572;7.372;2023-11-18T08:35:13;35.50;;;16.38;;
31424;SDS011;18054;51.572;7.372;2023-11-18T08:37:41;42.33;;;16.92;;
31424;SDS011;18054;51.572;7.372;2023-11-18T08:40:10;32.25;;;16.58;;
31424;SDS011;18054;51.572;7.372;2023-11-18T08:42:43;36.38;;;17.75;;
31424;SDS011;18054;51.572;7.372;2023-11-18T08:45:14;42.03;;;17.27;;
31424;SDS011;18054;51.572;7.372;2023-11-18T08:47:43;35.05;;;17.25;;
31424;SDS011;18054;51.572;7.372;2023-11-18T08:50:12;32.22;;;16.17;;
31424;SDS011;18054;51.572;7.372;2023-11-18T08:52:40;33.10;;;16.25;;
31424;SDS011;18054;51.572;7.372;2023-11-18T08:55:10;30.50;;;15.70;;
31424;SDS011;18054;51.572;7.372;2023-11-18T08:57:46;32.88;;;16.08;;
31424;SDS011;18054;51.572;7.372;2023-11-18T09:00:26;32.65;;;15.60;;
31424;SDS011;18054;51.572;7.372;2023-11-18T09:03:11;38.00;;;16.25;;
31424;SDS011;18054;51.572;7.372;2023-11-18T09:05:44;29.25;;;15.07;;
31424;SDS011;18054;51.572;7.372;2023-11-18T09:08:26;30.75;;;15.70;;
31424;SDS011;18054;51.572;7.372;2023-11-18T09:10:55;31.42;;;14.30;;
31424;SDS011;18054;51.572;7.372;2023-11-18T09:13:24;32.25;;;16.33;;
31424;SDS011;18054;51.572;7.372;2023-11-18T09:15:55;31.55;;;15.73;;
31424;SDS011;18054;51.572;7.372;2023-11-18T09:18:23;32.17;;;15.80;;
31424;SDS011;18054;51.572;7.372;2023-11-18T09:20:52;32.70;;;16.27;;
31424;SDS011;18054;51.572;7.372;2023-11-18T09:23:21;37.72;;;15.15;;
31424;SDS011;18054;51.572;7.372;2023-11-18T09:25:49;28.90;;;14.60;;
31424;SDS011;18054;51.572;7.372;2023-11-18T09:28:18;30.38;;;14.05;;
31424;SDS011;18054;51.572;7.372;2023-11-18T09:30:47;25.08;;;14.02;;
31424;SDS011;18054;51.572;7.372;2023-11-18T09:33:20;26.70;;;15.30;;
31424;SDS011;18054;51.572;7.372;2023-11-18T09:35:55;31.85;;;14.65;;
31424;SDS011;18054;51.572;7.372;2023-11-18T09:38:25;25.23;;;13.23;;
31424;SDS011;18054;51.572;7.372;2023-11-18T09:40:55;28.40;;;14.63;;
31424;SDS011;18054;51.572;7.372;2023-11-18T09:43:23;33.75;;;14.60;;
31424;SDS011;18054;51.572;7.372;2023-11-18T09:45:56;26.58;;;14.10;;
31424;SDS011;18054;51.572;7.372;2023-11-18T09:48:23;30.92;;;14.07;;
31424;SDS011;18054;51.572;7.372;2023-11-18T09:50:52;29.25;;;13.30;;
31424;SDS011;18054;51.572;7.372;2023-11-18T09:53:20;26.20;;;13.52;;
31424;SDS011;18054;51.572;7.372;2023-11-18T09:55:53;28.60;;;13.45;;
31424;SDS011;18054;51.572;7.372;2023-11-18T09:58:29;28.40;;;13.80;;
31424;SDS011;18054;51.572;7.372;2023-11-18T10:01:01;33.38;;;13.38;;
31424;SDS011;18054;51.572;7.372;2023-11-18T10:03:30;24.00;;;12.68;;
31424;SDS011;18054;51.572;7.372;2023-11-18T10:05:57;28.13;;;12.23;;
31424;SDS011;18054;51.572;7.372;2023-11-18T10:08:31;21.30;;;11.25;;
31424;SDS011;18054;51.572;7.372;2023-11-18T10:10:58;28.23;;;12.90;;
31424;SDS011;18054;51.572;7.372;2023-11-18T10:13:35;36.25;;;15.20;;
31424;SDS011;18054;51.572;7.372;2023-11-18T10:16:08;45.55;;;16.23;;
31424;SDS011;18054;51.572;7.372;2023-11-18T10:18:38;19.83;;;9.50;;
31424;SDS011;18054;51.572;7.372;2023-11-18T10:21:15;19.48;;;9.40;;
31424;SDS011;18054;51.572;7.372;2023-11-18T10:23:58;19.50;;;8.50;;
31424;SDS011;18054;51.572;7.372;2023-11-18T10:26:26;20.88;;;8.52;;
31424;SDS011;18054;51.572;7.372;2023-11-18T10:28:55;17.38;;;7.78;;
31424;SDS011;18054;51.572;7.372;2023-11-18T10:31:34;17.38;;;9.23;;
31424;SDS011;18054;51.572;7.372;2023-11-18T10:34:02;18.10;;;8.13;;
31424;SDS011;18054;51.572;7.372;2023-11-18T10:36:31;18.88;;;6.50;;
31424;SDS011;18054;51.572;7.372;2023-11-18T10:38:59;13.65;;;6.50;;
31424;SDS011;18054;51.572;7.372;2023-11-18T10:41:30;18.23;;;6.22;;
31424;SDS011;18054;51.572;7.372;2023-11-18T10:44:07;13.35;;;6.18;;
31424;SDS011;18054;51.572;7.372;2023-11-18T10:46:42;12.27;;;7.78;;
31424;SDS011;18054;51.572;7.372;2023-11-18T10:49:19;13.68;;;5.32;;
31424;SDS011;18054;51.572;7.372;2023-11-18T10:51:47;14.43;;;6.05;;
31424;SDS011;18054;51.572;7.372;2023-11-18T10:54:15;15.02;;;5.70;;
31424;SDS011;18054;51.572;7.372;2023-11-18T10:56:47;15.23;;;5.88;;
31424;SDS011;18054;51.572;7.372;2023-11-18T10:59:15;15.48;;;6.45;;
31424;SDS011;18054;51.572;7.372;2023-11-18T11:01:45;14.00;;;6.30;;
31424;SDS011;18054;51.572;7.372;2023-11-18T11:04:15;16.50;;;5.70;;
31424;SDS011;18054;51.572;7.372;2023-11-18T11:06:47;16.42;;;6.70;;
31424;SDS011;18054;51.572;7.372;2023-11-18T11:09:20;13.65;;;5.95;;
31424;SDS011;18054;51.572;7.372;2023-11-18T11:11:52;13.95;;;5.70;;
31424;SDS011;18054;51.572;7.372;2023-11-18T11:14:20;15.63;;;6.57;;
31424;SDS011;18054;51.572;7.372;2023-11-18T11:16:54;11.80;;;6.15;;
31424;SDS011;18054;51.572;7.372;2023-11-18T11:19:25;14.35;;;5.70;;
31424;SDS011;18054;51.572;7.372;2023-11-18T11:22:00;11.52;;;5.70;;
31424;SDS011;18054;51.572;7.372;2023-11-18T11:24:36;9.50;;;5.47;;
31424;SDS011;18054;51.572;7.372;2023-11-18T11:27:11;10.57;;;5.65;;
31424;SDS011;18054;51.572;7.372;2023-11-18T11:29:49;13.18;;;5.85;;
31424;SDS011;18054;51.572;7.372;2023-11-18T11:32:23;10.85;;;4.90;;
31424;SDS011;18054;51.572;7.372;2023-11-18T11:34:55;12.68;;;5.47;;
31424;SDS011;18054;51.572;7.372;2023-11-18T11:37:24;12.52;;;5.13;;
31424;SDS011;18054;51.572;7.372;2023-11-18T11:39:53;10.57;;;5.10;;
31424;SDS011;18054;51.572;7.372;2023-11-18T11:42:21;11.68;;;4.97;;
31424;SDS011;18054;51.572;7.372;2023-11-18T11:44:53;9.75;;;4.93;;
31424;SDS011;18054;51.572;7.372;2023-11-18T11:47:23;12.18;;;5.07;;
31424;SDS011;18054;51.572;7.372;2023-11-18T11:50:06;14.25;;;5.28;;
31424;SDS011;18054;51.572;7.372;2023-11-18T11:52:39;12.18;;;4.82;;
31424;SDS011;18054;51.572;7.372;2023-11-18T11:55:15;12.07;;;5.35;;
31424;SDS011;18054;51.572;7.372;2023-11-18T11:57:49;14.80;;;4.90;;
31424;SDS011;18054;51.572;7.372;2023-11-18T12:00:19;13.88;;;5.22;;
31424;SDS011;18054;51.572;7.372;2023-11-18T12:02:53;16.90;;;5.95;;
31424;SDS011;18054;51.572;7.372;2023-11-18T12:05:23;13.50;;;6.07;;
31424;SDS011;18054;51.572;7.372;2023-11-18T12:07:53;13.10;;;5.15;;
31424;SDS011;18054;51.572;7.372;2023-11-18T12:10:22;19.33;;;5.82;;
31424;SDS011;18054;51.572;7.372;2023-11-18T12:13:06;16.20;;;5.93;;
31424;SDS011;18054;51.572;7.372;2023-11-18T12:15:49;15.02;;;5.93;;
31424;SDS011;18054;51.572;7.372;2023-11-18T12:18:22;18.27;;;5.80;;
31424;SDS011;18054;51.572;7.372;2023-11-18T12:20:50;12.50;;;5.15;;
31424;SDS011;18054;51.572;7.372;2023-11-18T12:23:21;10.65;;;4.72;;
31424;SDS011;18054;51.572;7.372;2023-11-18T12:25:51;20.02;;;4.90;;
31424;SDS011;18054;51.572;7.372;2023-11-18T12:28:24;13.60;;;5.75;;
31424;SDS011;18054;51.572;7.372;2023-11-18T12:30:53;16.52;;;6.05;;
31424;SDS011;18054;51.572;7.372;2023-11-18T12:33:25;11.82;;;5.57;;
31424;SDS011;18054;51.572;7.372;2023-11-18T12:38:48;14.07;;;4.97;;
31424;SDS011;18054;51.572;7.372;2023-11-18T12:41:28;14.48;;;6.00;;
31424;SDS011;18054;51.572;7.372;2023-11-18T12:44:04;13.50;;;6.10;;
31424;SDS011;18054;51.572;7.372;2023-11-18T12:49:23;10.48;;;5.40;;
31424;SDS011;18054;51.572;7.372;2023-11-18T12:51:52;12.80;;;6.28;;
31424;SDS011;18054;51.572;7.372;2023-11-18T12:54:21;13.18;;;6.60;;
31424;SDS011;18054;51.572;7.372;2023-11-18T12:56:51;14.85;;;5.78;;
31424;SDS011;18054;51.572;7.372;2023-11-18T12:59:20;12.65;;;6.63;;
31424;SDS011;18054;51.572;7.372;2023-11-18T13:04:19;19.15;;;5.75;;
31424;SDS011;18054;51.572;7.372;2023-11-18T13:06:48;26.52;;;5.80;;
31424;SDS011;18054;51.572;7.372;2023-11-18T13:09:17;13.65;;;5.90;;
31424;SDS011;18054;51.572;7.372;2023-11-18T13:11:52;13.25;;;5.90;;
31424;SDS011;18054;51.572;7.372;2023-11-18T13:14:23;12.30;;;5.53;;
31424;SDS011;18054;51.572;7.372;2023-11-18T13:16:51;14.55;;;6.10;;
31424;SDS011;18054;51.572;7.372;2023-11-18T13:19:25;24.70;;;5.70;;
31424;SDS011;18054;51.572;7.372;2023-11-18T13:21:58;13.07;;;6.22;;
31424;SDS011;18054;51.572;7.372;2023-11-18T13:24:26;18.05;;;5.93;;
31424;SDS011;18054;51.572;7.372;2023-11-18T13:26:54;16.17;;;6.63;;
31424;SDS011;18054;51.572;7.372;2023-11-18T13:31:49;19.35;;;6.60;;
31424;SDS011;18054;51.572;7.372;2023-11-18T13:34:18;17.55;;;6.13;;
31424;SDS011;18054;51.572;7.372;2023-11-18T13:36:46;12.80;;;5.75;;
31424;SDS011;18054;51.572;7.372;2023-11-18T13:39:18;15.38;;;5.53;;
31424;SDS011;18054;51.572;7.372;2023-11-18T13:41:48;14.70;;;6.55;;
31424;SDS011;18054;51.572;7.372;2023-11-18T13:47:00;21.83;;;7.28;;
31424;SDS011;18054;51.572;7.372;2023-11-18T13:49:28;17.63;;;7.43;;
31424;SDS011;18054;51.572;7.372;2023-11-18T13:51:56;16.52;;;6.55;;
31424;SDS011;18054;51.572;7.372;2023-11-18T13:54:24;19.60;;;7.43;;
31424;SDS011;18054;51.572;7.372;2023-11-18T13:56:57;22.55;;;7.18;;
31424;SDS011;18054;51.572;7.372;2023-11-18T13:59:25;15.68;;;7.45;;
31424;SDS011;18054;51.572;7.372;2023-11-18T14:01:53;17.95;;;7.97;;
31424;SDS011;18054;51.572;7.372;2023-11-18T14:04:24;24.65;;;8.63;;
31424;SDS011;18054;51.572;7.372;2023-11-18T14:06:56;18.65;;;8.00;;
31424;SDS011;18054;51.572;7.372;2023-11-18T14:09:25;18.73;;;7.47;;
31424;SDS011;18054;51.572;7.372;2023-11-18T14:11:55;21.17;;;7.80;;
31424;SDS011;18054;51.572;7.372;2023-11-18T14:14:23;14.52;;;7.50;;
31424;SDS011;18054;51.572;7.372;2023-11-18T14:16:51;16.65;;;6.90;;
31424;SDS011;18054;51.572;7.372;2023-11-18T14:19:19;14.32;;;6.88;;
31424;SDS011;18054;51.572;7.372;2023-11-18T14:21:48;12.90;;;6.03;;
31424;SDS011;18054;51.572;7.372;2023-11-18T14:29:12;16.73;;;5.80;;
31424;SDS011;18054;51.572;7.372;2023-11-18T14:31:40;15.50;;;6.05;;
31424;SDS011;18054;51.572;7.372;2023-11-18T14:34:07;12.30;;;5.40;;
31424;SDS011;18054;51.572;7.372;2023-11-18T14:36:36;8.82;;;5.13;;
31424;SDS011;18054;51.572;7.372;2023-11-18T14:39:04;16.48;;;5.57;;
31424;SDS011;18054;51.572;7.372;2023-11-18T14:41:31;9.38;;;4.80;;
31424;SDS011;18054;51.572;7.372;2023-11-18T14:43:59;13.65;;;4.97;;
31424;SDS011;18054;51.572;7.372;2023-11-18T14:46:31;11.05;;;4.97;;
31424;SDS011;18054;51.572;7.372;2023-11-18T14:48:59;13.60;;;5.82;;
31424;SDS011;18054;51.572;7.372;2023-11-18T14:51:26;22.90;;;5.57;;
31424;SDS011;18054;51.572;7.372;2023-11-18T14:53:54;17.77;;;7.05;;
31424;SDS011;18054;51.572;7.372;2023-11-18T14:56:21;12.52;;;4.90;;
31424;SDS011;18054;51.572;7.372;2023-11-18T14:58:49;15.27;;;5.55;;
31424;SDS011;18054;51.572;7.372;2023-11-18T15:01:16;11.80;;;5.32;;
31424;SDS011;18054;51.572;7.372;2023-11-18T15:06:13;13.80;;;5.78;;
31424;SDS011;18054;51.572;7.372;2023-11-18T15:08:42;10.52;;;4.90;;
31424;SDS011;18054;51.572;7.372;2023-11-18T15:11:12;14.23;;;5.70;;
31424;SDS011;18054;51.572;7.372;2023-11-18T15:13:41;11.13;;;5.03;;
31424;SDS011;18054;51.572;7.372;2023-11-18T15:16:09;10.27;;;5.50;;
31424;SDS011;18054;51.572;7.372;2023-11-18T15:18:36;11.45;;;4.15;;
31424;SDS011;18054;51.572;7.372;2023-11-18T15:23:33;5.60;;;2.45;;
31424;SDS011;18054;51.572;7.372;2023-11-18T15:26:01;10.15;;;3.42;;
31424;SDS011;18054;51.572;7.372;2023-11-18T15:28:29;9.68;;;3.95;;
31424;SDS011;18054;51.572;7.372;2023-11-18T15:30:57;11.98;;;3.70;;
31424;SDS011;18054;51.572;7.372;2023-11-18T15:33:27;11.27;;;4.40;;
31424;SDS011;18054;51.572;7.372;2023-11-18T15:35:55;8.77;;;3.50;;
31424;SDS011;18054;51.572;7.372;2023-11-18T15:38:22;10.20;;;3.35;;